Time;durP1;ratioP1;P1;durP2;ratioP2;P2;SDS_P1;SDS_P2;PMS_P1;PMS_P2;Temp;Humidity;BMP_temperature;BMP_pressure;BME280_temperature;BME280_humidity;BME280_pressure;Samples;Min_cycle;Max_cycle;Signal;HPM_P1;HPM_P2
2021/12/31 00:02:19;;;;;;;5.65;2.50;;;20.30;59.30;;;;;;5003998;28;20599;-74
2021/12/31 00:04:45;;;;;;;6.38;2.50;;;20.30;59.30;;;;;;5005661;28;20046;-74
2021/12/31 00:07:11;;;;;;;4.88;2.33;;;20.30;59.30;;;;;;5004179;28;20038;-72
2021/12/31 00:09:37;;;;;;;4.60;2.17;;;20.30;59.30;;;;;;5005245;28;20141;-74
2021/12/31 00:12:04;;;;;;;7.50;2.45;;;20.30;59.20;;;;;;5003352;28;20042;-72
2021/12/31 00:14:30;;;;;;;6.20;2.60;;;20.30;59.20;;;;;;5006734;28;20472;-74
2021/12/31 00:16:56;;;;;;;5.28;2.55;;;20.30;59.90;;;;;;5006131;28;20080;-75
2021/12/31 00:19:22;;;;;;;5.72;2.65;;;20.40;59.10;;;;;;5005103;28;20053;-75
2021/12/31 00:21:50;;;;;;;5.75;2.15;;;20.40;59.10;;;;;;5004266;28;20056;-75
2021/12/31 00:24:15;;;;;;;5.30;2.03;;;20.30;59.00;;;;;;5002735;28;20854;-69
2021/12/31 00:26:41;;;;;;;4.80;2.13;;;20.30;59.00;;;;;;5004169;28;20041;-74
2021/12/31 00:29:09;;;;;;;5.47;2.10;;;20.30;59.80;;;;;;5005186;28;20078;-75
2021/12/31 00:31:35;;;;;;;4.80;2.15;;;20.30;58.90;;;;;;5005830;28;20046;-70
2021/12/31 00:34:00;;;;;;;7.13;2.10;;;20.30;58.90;;;;;;5003945;28;20034;-74
2021/12/31 00:36:39;;;;;;;6.00;2.05;;;20.40;58.90;;;;;;5004385;28;20103;-74
2021/12/31 00:39:05;;;;;;;4.47;2.20;;;20.40;58.80;;;;;;5004948;28;20069;-74
2021/12/31 00:41:31;;;;;;;6.55;2.15;;;20.30;58.80;;;;;;5004498;28;20080;-74
2021/12/31 00:43:57;;;;;;;6.07;2.20;;;20.40;58.80;;;;;;5004370;28;20042;-72
2021/12/31 00:46:22;;;;;;;6.47;2.47;;;20.40;58.90;;;;;;5004691;28;20034;-75
2021/12/31 00:48:48;;;;;;;4.38;2.10;;;20.40;58.80;;;;;;5019727;28;20096;-75
2021/12/31 00:51:13;;;;;;;8.18;2.60;;;20.30;58.70;;;;;;5003449;28;20428;-75
2021/12/31 00:53:39;;;;;;;7.00;2.13;;;20.40;58.70;;;;;;5003393;28;20791;-71
2021/12/31 00:56:04;;;;;;;8.07;2.15;;;20.40;58.60;;;;;;5004211;28;20192;-76
2021/12/31 00:58:30;;;;;;;4.28;1.70;;;20.40;58.60;;;;;;5004486;28;20852;-74
2021/12/31 01:00:57;;;;;;;5.35;2.10;;;20.40;58.60;;;;;;5005099;28;20038;-73
2021/12/31 01:03:22;;;;;;;4.05;1.80;;;20.40;58.50;;;;;;5002494;28;20037;-75
2021/12/31 01:05:48;;;;;;;4.47;1.88;;;20.40;58.50;;;;;;5002472;28;20042;-75
2021/12/31 01:08:13;;;;;;;5.43;1.90;;;20.40;58.60;;;;;;5002610;28;20038;-73
2021/12/31 01:10:39;;;;;;;5.55;1.77;;;20.40;58.50;;;;;;5003847;28;20056;-73
2021/12/31 01:13:09;;;;;;;4.95;1.98;;;20.40;58.40;;;;;;5004574;28;20058;-75
2021/12/31 01:15:43;;;;;;;4.55;1.60;;;20.40;58.40;;;;;;5003943;28;20034;-71
2021/12/31 01:20:37;;;;;;;;;;;20.40;58.40;;;;;;5004273;28;20050;-73
2021/12/31 01:23:04;;;;;;;5.30;2.05;;;20.40;58.20;;;;;;5005070;28;19956;-72
2021/12/31 01:25:30;;;;;;;5.47;1.98;;;20.40;58.30;;;;;;5000772;28;20038;-73
2021/12/31 01:27:56;;;;;;;6.35;2.15;;;20.40;58.20;;;;;;5005659;28;20048;-72
2021/12/31 01:30:22;;;;;;;3.95;1.77;;;20.40;58.20;;;;;;5001611;28;20049;-73
2021/12/31 01:32:47;;;;;;;4.68;1.60;;;20.40;58.20;;;;;;5002864;28;20038;-74
2021/12/31 01:35:14;;;;;;;3.60;1.75;;;20.50;58.20;;;;;;5002625;28;20401;-74
2021/12/31 01:37:40;;;;;;;5.45;1.70;;;20.40;58.10;;;;;;5004560;28;20710;-74
2021/12/31 01:40:07;;;;;;;4.13;1.60;;;20.40;58.10;;;;;;5003852;28;20049;-69
2021/12/31 01:42:34;;;;;;;3.92;1.60;;;20.40;58.10;;;;;;5003958;28;20715;-75
2021/12/31 01:45:08;;;;;;;4.95;2.03;;;20.50;58.10;;;;;;5003708;28;20042;-75
2021/12/31 01:47:36;;;;;;;5.82;1.60;;;20.40;58.10;;;;;;5003581;28;20077;-75
2021/12/31 01:50:07;;;;;;;5.53;1.98;;;20.40;58.00;;;;;;5001780;28;20108;-75
2021/12/31 01:52:34;;;;;;;3.85;1.60;;;20.40;58.00;;;;;;5004790;28;20048;-75
2021/12/31 01:55:01;;;;;;;4.00;1.70;;;20.40;58.00;;;;;;4999746;28;20041;-75
2021/12/31 01:57:27;;;;;;;5.68;1.52;;;20.40;58.00;;;;;;5019370;28;20540;-75
2021/12/31 01:59:52;;;;;;;4.78;1.80;;;20.40;58.00;;;;;;5002463;28;20065;-73
2021/12/31 02:02:19;;;;;;;5.05;1.88;;;20.40;58.00;;;;;;5003835;28;20054;-72
2021/12/31 02:04:44;;;;;;;4.00;1.60;;;20.40;58.00;;;;;;4999156;28;20045;-71
2021/12/31 02:07:11;;;;;;;4.50;1.80;;;20.40;58.00;;;;;;5004107;28;20042;-76
2021/12/31 02:09:44;;;;;;;4.25;1.80;;;20.40;57.90;;;;;;5002035;28;20132;-74
2021/12/31 02:12:11;;;;;;;5.97;1.60;;;20.40;57.90;;;;;;5003184;28;20111;-74
2021/12/31 02:14:37;;;;;;;5.53;1.80;;;20.40;57.90;;;;;;5003504;28;20048;-75
2021/12/31 02:17:07;;;;;;;3.38;1.40;;;20.40;57.90;;;;;;5000708;28;20046;-70
2021/12/31 02:19:33;;;;;;;3.35;1.52;;;20.40;57.90;;;;;;5002711;28;20073;-74
2021/12/31 02:21:59;;;;;;;4.25;1.60;;;20.40;57.80;;;;;;5002426;28;20921;-69
2021/12/31 02:24:25;;;;;;;4.53;1.80;;;20.40;57.80;;;;;;4998994;28;20136;-75
2021/12/31 02:26:51;;;;;;;4.63;1.55;;;20.40;57.80;;;;;;5003269;28;20473;-74
2021/12/31 02:29:17;;;;;;;4.40;1.52;;;20.40;57.80;;;;;;4999785;28;20410;-75
2021/12/31 02:31:43;;;;;;;4.57;1.70;;;20.40;57.80;;;;;;5001435;28;20046;-67
2021/12/31 02:34:09;;;;;;;5.20;1.80;;;20.40;57.80;;;;;;5002066;28;20057;-74
2021/12/31 02:36:34;;;;;;;5.38;1.80;;;20.40;57.80;;;;;;5002761;28;20041;-70
2021/12/31 02:39:02;;;;;;;3.63;1.77;;;20.40;57.80;;;;;;5002217;28;20586;-74
2021/12/31 02:41:28;;;;;;;4.32;1.60;;;20.40;57.80;;;;;;5003312;28;20111;-74
2021/12/31 02:43:53;;;;;;;4.15;1.52;;;20.40;57.80;;;;;;5018219;28;20132;-75
2021/12/31 02:46:19;;;;;;;5.55;2.00;;;20.40;57.80;;;;;;5003200;28;20046;-72
2021/12/31 02:48:47;;;;;;;4.15;1.58;;;20.40;57.80;;;;;;5001630;28;20069;-74
2021/12/31 02:51:12;;;;;;;4.30;1.60;;;20.40;57.80;;;;;;4999311;28;20123;-74
2021/12/31 02:53:40;;;;;;;4.25;1.52;;;20.40;57.70;;;;;;5000713;28;20497;-73
2021/12/31 02:56:12;;;;;;;3.80;1.38;;;20.40;57.80;;;;;;5001561;28;20401;-72
2021/12/31 02:58:40;;;;;;;4.70;1.80;;;20.40;57.70;;;;;;5001729;28;20485;-74
2021/12/31 03:01:07;;;;;;;3.45;1.40;;;20.40;57.70;;;;;;5000644;28;20497;-75
2021/12/31 03:03:35;;;;;;;5.50;1.63;;;20.40;57.70;;;;;;5001825;28;20042;-73
2021/12/31 03:06:01;;;;;;;4.35;1.70;;;20.40;57.70;;;;;;5001736;28;20041;-74
2021/12/31 03:08:33;;;;;;;3.88;1.60;;;20.40;57.70;;;;;;5001342;28;20134;-71
2021/12/31 03:11:01;;;;;;;4.13;1.45;;;20.40;58.40;;;;;;5000178;28;20056;-75
2021/12/31 03:13:28;;;;;;;2.83;1.30;;;20.40;57.70;;;;;;5000023;28;20405;-74
2021/12/31 03:15:54;;;;;;;3.90;1.50;;;20.40;57.70;;;;;;5003373;28;20129;-73
2021/12/31 03:18:20;;;;;;;3.88;1.40;;;20.40;57.70;;;;;;5000070;28;20538;-74
2021/12/31 03:21:09;;;;;;;2.97;1.42;;;20.40;57.60;;;;;;4996765;28;20081;-71
2021/12/31 03:23:36;;;;;;;4.07;1.30;;;20.40;57.60;;;;;;4999469;28;20138;-69
2021/12/31 03:26:02;;;;;;;3.00;1.25;;;20.40;57.60;;;;;;5002180;28;20076;-74
2021/12/31 03:28:28;;;;;;;2.95;1.23;;;20.40;57.60;;;;;;5001439;28;20578;-73
2021/12/31 03:30:55;;;;;;;3.50;1.40;;;20.40;57.60;;;;;;4982182;28;20046;-73
2021/12/31 03:33:21;;;;;;;2.95;1.30;;;20.40;57.60;;;;;;5002783;28;20190;-75
2021/12/31 03:35:47;;;;;;;5.72;1.55;;;20.50;57.60;;;;;;5003187;28;20111;-76
2021/12/31 03:38:12;;;;;;;3.13;1.40;;;20.50;57.50;;;;;;5003457;28;20163;-73
2021/12/31 03:40:39;;;;;;;4.43;1.67;;;20.50;58.30;;;;;;5004492;28;20042;-72
2021/12/31 03:43:06;;;;;;;4.50;1.42;;;20.50;57.50;;;;;;5002310;28;20046;-74
2021/12/31 03:45:32;;;;;;;4.13;1.33;;;20.50;57.50;;;;;;5002717;28;20049;-74
2021/12/31 03:47:58;;;;;;;3.70;1.40;;;20.50;57.40;;;;;;4997143;28;20750;-74
2021/12/31 03:50:24;;;;;;;4.88;1.48;;;20.50;57.40;;;;;;5018016;28;20054;-71
2021/12/31 03:52:49;;;;;;;4.65;1.60;;;20.50;57.40;;;;;;5002477;28;20033;-73
2021/12/31 03:55:15;;;;;;;3.35;1.30;;;20.50;57.40;;;;;;5001462;28;20072;-71
2021/12/31 03:57:40;;;;;;;2.33;1.15;;;20.50;57.40;;;;;;5002874;28;20155;-67
2021/12/31 04:00:08;;;;;;;1.88;1.08;;;20.50;57.30;;;;;;5002946;28;20053;-73
2021/12/31 04:02:34;;;;;;;2.67;1.38;;;20.50;57.30;;;;;;5002576;28;20421;-71
2021/12/31 04:05:00;;;;;;;3.88;1.05;;;20.50;57.30;;;;;;5001970;28;20528;-71
2021/12/31 04:07:25;;;;;;;2.90;1.42;;;20.50;57.30;;;;;;5003674;28;20073;-74
2021/12/31 04:09:51;;;;;;;3.22;1.30;;;20.50;57.30;;;;;;5001141;28;20042;-69
2021/12/31 04:12:17;;;;;;;3.05;1.42;;;20.50;57.30;;;;;;5003135;28;20363;-73
2021/12/31 04:14:43;;;;;;;4.25;1.55;;;20.50;57.20;;;;;;5006448;28;20121;-73
2021/12/31 04:17:08;;;;;;;2.92;1.27;;;20.50;57.20;;;;;;5003700;28;20164;-74
2021/12/31 04:19:34;;;;;;;2.58;1.15;;;20.50;57.10;;;;;;5022228;28;20038;-74
2021/12/31 04:22:00;;;;;;;3.83;1.27;;;20.50;57.10;;;;;;5020811;28;20029;-74
2021/12/31 04:27:09;;;;;;;3.58;1.30;;;20.50;57.10;;;;;;5004482;28;20467;-72
2021/12/31 04:29:35;;;;;;;2.85;1.33;;;20.50;57.10;;;;;;5006623;28;20643;-74
2021/12/31 04:32:01;;;;;;;3.08;1.10;;;20.50;57.10;;;;;;5006199;28;20065;-71
2021/12/31 04:34:28;;;;;;;2.28;1.20;;;20.50;57.10;;;;;;5004082;28;20079;-72
2021/12/31 04:36:53;;;;;;;4.07;1.23;;;20.60;57.10;;;;;;5006886;28;20073;-74
2021/12/31 04:39:20;;;;;;;2.35;1.20;;;20.50;57.00;;;;;;5004571;28;20094;-69
2021/12/31 04:41:45;;;;;;;2.47;1.20;;;20.50;57.00;;;;;;5003576;28;20033;-73
2021/12/31 04:44:11;;;;;;;2.42;1.30;;;20.60;57.10;;;;;;5000251;28;20084;-75
2021/12/31 04:46:36;;;;;;;3.13;1.13;;;20.50;57.70;;;;;;5005763;28;20058;-73
2021/12/31 04:49:03;;;;;;;3.03;1.20;;;20.50;57.00;;;;;;5005325;28;20049;-71
2021/12/31 04:51:28;;;;;;;3.67;1.30;;;20.60;57.00;;;;;;5004213;28;20121;-73
2021/12/31 04:53:54;;;;;;;3.22;1.38;;;20.50;57.00;;;;;;5005571;28;20104;-73
2021/12/31 04:56:20;;;;;;;2.65;1.10;;;20.60;57.00;;;;;;5004735;28;20119;-73
2021/12/31 04:58:46;;;;;;;1.85;1.08;;;20.60;56.90;;;;;;5006965;28;20405;-73
2021/12/31 05:01:11;;;;;;;2.25;1.20;;;20.60;56.90;;;;;;5003840;28;20053;-74
2021/12/31 05:03:37;;;;;;;1.90;1.00;;;20.60;56.90;;;;;;5004689;28;20042;-74
2021/12/31 05:06:05;;;;;;;3.58;1.10;;;20.60;56.90;;;;;;5019127;28;20050;-68
2021/12/31 05:08:31;;;;;;;1.95;1.10;;;20.60;56.90;;;;;;5003715;28;20096;-70
2021/12/31 05:10:56;;;;;;;2.08;0.95;;;20.60;56.90;;;;;;5003581;28;20046;-74
2021/12/31 05:13:22;;;;;;;2.55;0.98;;;20.60;56.80;;;;;;5005256;28;20049;-75
2021/12/31 05:15:51;;;;;;;1.80;0.95;;;20.60;56.80;;;;;;5003699;28;20073;-74
2021/12/31 05:18:17;;;;;;;3.38;1.30;;;20.60;56.80;;;;;;5004433;28;20038;-74
2021/12/31 05:20:43;;;;;;;2.45;1.20;;;20.60;56.80;;;;;;5001327;28;20052;-73
2021/12/31 05:23:09;;;;;;;2.05;1.10;;;20.60;56.80;;;;;;5019713;28;20034;-72
2021/12/31 05:25:35;;;;;;;1.55;0.98;;;20.60;56.70;;;;;;5003665;28;20692;-73
2021/12/31 05:28:00;;;;;;;3.67;1.27;;;20.60;56.70;;;;;;5003244;28;20129;-71
2021/12/31 05:30:28;;;;;;;2.40;1.00;;;20.60;56.70;;;;;;5004080;28;20615;-74
2021/12/31 05:32:57;;;;;;;2.22;1.20;;;20.70;57.50;;;;;;5005224;28;20049;-74
2021/12/31 05:35:23;;;;;;;1.83;0.95;;;20.70;56.70;;;;;;5005592;28;20097;-71
2021/12/31 05:37:50;;;;;;;1.70;0.90;;;20.60;56.70;;;;;;5006087;28;20038;-70
2021/12/31 05:40:15;;;;;;;2.55;1.00;;;20.60;56.70;;;;;;5002491;28;20038;-73
2021/12/31 05:42:41;;;;;;;1.85;1.00;;;20.60;56.70;;;;;;5006053;28;20057;-71
2021/12/31 05:45:09;;;;;;;1.95;1.05;;;20.60;56.70;;;;;;5002289;28;20056;-67
2021/12/31 05:47:35;;;;;;;1.65;1.10;;;20.60;56.70;;;;;;5005781;28;20040;-73
2021/12/31 05:50:04;;;;;;;2.08;1.10;;;20.60;56.70;;;;;;5003142;28;20647;-75
2021/12/31 05:52:30;;;;;;;2.95;1.00;;;20.60;56.70;;;;;;5019011;28;20892;-72
2021/12/31 05:54:55;;;;;;;2.03;1.00;;;20.60;56.70;;;;;;5003349;28;20559;-69
2021/12/31 05:57:21;;;;;;;2.25;1.00;;;20.60;56.70;;;;;;5003963;28;20042;-74
2021/12/31 05:59:46;;;;;;;2.60;1.25;;;20.60;56.70;;;;;;5004470;28;20044;-74
2021/12/31 06:02:12;;;;;;;1.73;0.90;;;20.60;56.70;;;;;;5004283;28;20057;-75
2021/12/31 06:04:37;;;;;;;2.25;1.10;;;20.60;56.70;;;;;;5003500;28;20046;-74
2021/12/31 06:07:04;;;;;;;1.60;1.00;;;20.60;56.70;;;;;;5004585;28;21774;-75
2021/12/31 06:09:30;;;;;;;2.25;1.20;;;20.60;56.70;;;;;;5002518;28;20178;-72
2021/12/31 06:11:58;;;;;;;3.00;1.00;;;20.60;56.70;;;;;;5002762;28;20048;-73
2021/12/31 06:14:24;;;;;;;2.08;1.15;;;20.70;56.70;;;;;;5002952;28;20037;-74
2021/12/31 06:16:50;;;;;;;3.05;1.10;;;20.70;56.70;;;;;;5004390;28;20561;-75
2021/12/31 06:19:16;;;;;;;1.38;0.85;;;20.60;56.60;;;;;;5003702;28;20076;-74
2021/12/31 06:21:43;;;;;;;1.45;0.90;;;20.60;56.70;;;;;;5004033;28;20093;-75
2021/12/31 06:24:10;;;;;;;1.95;1.00;;;20.60;56.60;;;;;;5001905;28;20046;-73
2021/12/31 06:26:37;;;;;;;2.22;1.00;;;20.60;56.60;;;;;;5004359;28;20424;-78
2021/12/31 06:29:04;;;;;;;2.22;0.90;;;20.60;56.70;;;;;;5001424;28;20045;-75
2021/12/31 06:31:30;;;;;;;2.58;1.00;;;20.60;56.70;;;;;;5001290;28;20065;-71
2021/12/31 06:33:56;;;;;;;2.47;0.90;;;20.60;56.80;;;;;;5000498;28;20076;-79
2021/12/31 06:36:21;;;;;;;1.33;0.75;;;20.60;56.80;;;;;;4998712;28;20073;-78
2021/12/31 06:38:49;;;;;;;2.08;0.90;;;20.60;56.70;;;;;;5008739;28;20034;-77
2021/12/31 06:41:16;;;;;;;2.20;0.90;;;20.70;56.90;;;;;;5004888;28;20042;-76
2021/12/31 06:43:42;;;;;;;4.05;0.90;;;20.70;56.90;;;;;;5005796;28;20157;-74
2021/12/31 06:46:08;;;;;;;3.13;1.02;;;20.60;56.80;;;;;;5005872;28;20065;-78
2021/12/31 06:48:33;;;;;;;2.38;1.08;;;20.70;56.80;;;;;;4992893;28;20164;-78
2021/12/31 06:50:59;;;;;;;2.63;0.93;;;20.70;56.70;;;;;;4989749;28;20045;-78
2021/12/31 06:53:24;;;;;;;2.45;0.93;;;20.70;56.70;;;;;;4989501;28;20053;-77
2021/12/31 06:55:50;;;;;;;2.28;1.30;;;20.70;56.70;;;;;;4981831;28;20065;-69
2021/12/31 06:58:16;;;;;;;1.67;0.82;;;20.80;56.80;;;;;;5006833;28;20057;-77
2021/12/31 07:00:41;;;;;;;2.03;0.90;;;20.80;56.80;;;;;;4980541;28;20121;-75
2021/12/31 07:03:11;;;;;;;2.25;0.90;;;20.80;56.90;;;;;;4999511;28;20934;-71
2021/12/31 07:05:36;;;;;;;2.67;0.90;;;20.80;56.90;;;;;;5005477;28;20056;-76
2021/12/31 07:08:03;;;;;;;2.10;0.90;;;20.80;56.90;;;;;;5003962;28;20042;-76
2021/12/31 07:10:29;;;;;;;0.90;0.70;;;20.80;57.00;;;;;;5003612;28;20135;-73
2021/12/31 07:13:10;;;;;;;4.75;0.98;;;20.80;56.90;;;;;;4990925;28;20050;-74
2021/12/31 07:15:38;;;;;;;2.95;1.00;;;20.80;56.80;;;;;;5002229;28;20514;-72
2021/12/31 07:18:03;;;;;;;3.30;1.02;;;20.80;56.80;;;;;;5005720;28;20490;-70
2021/12/31 07:20:29;;;;;;;1.35;0.77;;;20.80;56.90;;;;;;4997245;28;20139;-72
2021/12/31 07:22:54;;;;;;;2.10;0.90;;;20.80;56.90;;;;;;4985375;28;20116;-74
2021/12/31 07:25:20;;;;;;;2.53;1.10;;;20.80;57.00;;;;;;5000088;28;20045;-76
2021/12/31 07:27:50;;;;;;;2.03;1.00;;;20.80;57.00;;;;;;5005160;28;20026;-72
2021/12/31 07:30:17;;;;;;;3.10;0.85;;;20.80;56.90;;;;;;5005666;28;20493;-73
2021/12/31 07:32:43;;;;;;;1.85;0.90;;;20.80;56.90;;;;;;4999975;28;20560;-75
2021/12/31 07:35:09;;;;;;;3.42;0.90;;;20.80;56.90;;;;;;4998598;28;20260;-71
2021/12/31 07:37:37;;;;;;;1.50;0.80;;;20.80;56.90;;;;;;4989933;28;20049;-75
2021/12/31 07:40:05;;;;;;;3.03;1.00;;;20.80;56.90;;;;;;4999135;28;20034;-75
2021/12/31 07:42:31;;;;;;;3.10;1.15;;;20.80;56.80;;;;;;5002262;28;20128;-74
2021/12/31 07:44:57;;;;;;;1.92;1.00;;;20.80;56.80;;;;;;4985462;28;20090;-75
2021/12/31 07:47:22;;;;;;;1.20;0.88;;;20.80;56.80;;;;;;4998787;28;20034;-73
2021/12/31 07:49:48;;;;;;;2.53;1.00;;;20.80;56.80;;;;;;5006880;28;20092;-74
2021/12/31 07:52:13;;;;;;;2.60;0.88;;;20.80;56.80;;;;;;5000737;28;20042;-75
2021/12/31 07:54:39;;;;;;;2.17;0.80;;;20.80;56.80;;;;;;4987475;28;20112;-73
2021/12/31 07:57:05;;;;;;;4.38;1.10;;;20.80;56.80;;;;;;5002907;28;20486;-70
2021/12/31 07:59:30;;;;;;;1.50;0.77;;;20.80;56.80;;;;;;4992297;28;20042;-76
2021/12/31 08:01:59;;;;;;;2.17;1.00;;;20.90;56.80;;;;;;5004910;28;20061;-71
2021/12/31 08:04:24;;;;;;;;;;;20.90;56.90;;;;;;5001941;28;20053;-75
2021/12/31 08:06:50;;;;;;;1.50;0.63;;;20.80;56.70;;;;;;5004850;28;19921;-72
2021/12/31 08:09:15;;;;;;;2.15;0.90;;;20.80;56.80;;;;;;5004994;28;20609;-73
2021/12/31 08:11:41;;;;;;;1.88;0.90;;;20.90;56.80;;;;;;5000725;28;20050;-70
2021/12/31 08:14:07;;;;;;;5.28;0.90;;;20.90;56.90;;;;;;4992188;28;20053;-74
2021/12/31 08:16:33;;;;;;;2.10;0.88;;;20.90;56.90;;;;;;5007237;28;20045;-66
2021/12/31 08:18:58;;;;;;;6.72;0.80;;;20.80;56.90;;;;;;5005697;28;20053;-74
2021/12/31 08:21:24;;;;;;;2.92;0.70;;;20.80;57.10;;;;;;5004812;28;20049;-73
2021/12/31 08:23:49;;;;;;;2.53;1.15;;;20.90;57.20;;;;;;5006058;28;20045;-74
2021/12/31 08:26:15;;;;;;;3.75;0.93;;;20.90;57.30;;;;;;5004334;28;20042;-73
2021/12/31 08:28:41;;;;;;;4.35;0.90;;;20.80;57.30;;;;;;5003907;28;20489;-71
2021/12/31 08:31:06;;;;;;;3.03;0.95;;;20.90;57.30;;;;;;5004075;28;20049;-68
2021/12/31 08:33:32;;;;;;;2.60;1.17;;;20.90;57.30;;;;;;5003811;28;20045;-70
2021/12/31 08:35:58;;;;;;;2.95;0.80;;;20.90;57.40;;;;;;4996969;28;20706;-70
2021/12/31 08:38:24;;;;;;;1.25;0.70;;;20.90;57.40;;;;;;5003903;28;20049;-68
2021/12/31 08:40:51;;;;;;;1.52;0.90;;;20.90;58.20;;;;;;5004751;28;20128;-70
2021/12/31 08:43:17;;;;;;;1.20;0.85;;;20.90;57.40;;;;;;5004234;28;20042;-73
2021/12/31 08:45:43;;;;;;;1.90;1.10;;;20.90;57.40;;;;;;4995156;28;20048;-72
2021/12/31 08:48:08;;;;;;;2.20;1.08;;;21.00;57.30;;;;;;5002623;28;20042;-71
2021/12/31 08:50:34;;;;;;;4.90;1.00;;;21.20;57.10;;;;;;5001192;28;20077;-67
2021/12/31 08:53:00;;;;;;;1.90;0.90;;;21.10;57.00;;;;;;5004499;28;20099;-70
2021/12/31 08:55:26;;;;;;;7.60;0.88;;;21.10;57.10;;;;;;4994822;28;20124;-71
2021/12/31 08:57:52;;;;;;;2.25;0.95;;;21.10;57.10;;;;;;4996866;28;20069;-71
2021/12/31 09:00:17;;;;;;;1.85;0.80;;;21.10;57.20;;;;;;5002112;28;20848;-71
2021/12/31 09:02:45;;;;;;;2.85;1.00;;;21.10;57.30;;;;;;5004051;28;20060;-72
2021/12/31 09:05:11;;;;;;;1.52;1.00;;;21.10;57.30;;;;;;4991892;28;20472;-71
2021/12/31 09:07:37;;;;;;;2.10;0.65;;;21.10;57.30;;;;;;5003639;28;20057;-72
2021/12/31 09:10:05;;;;;;;2.40;0.80;;;21.10;57.30;;;;;;4991971;28;20851;-71
2021/12/31 09:12:30;;;;;;;1.73;0.90;;;21.00;57.30;;;;;;4993420;28;20074;-69
2021/12/31 09:14:56;;;;;;;1.95;0.93;;;21.10;57.40;;;;;;4980006;28;20145;-70
2021/12/31 09:17:23;;;;;;;3.30;0.98;;;21.00;57.30;;;;;;4975838;28;20042;-69
2021/12/31 09:19:50;;;;;;;1.05;0.80;;;21.00;57.40;;;;;;4977424;28;20056;-69
2021/12/31 09:22:16;;;;;;;1.88;0.88;;;21.00;57.50;;;;;;4984925;28;20041;-70
2021/12/31 09:24:43;;;;;;;2.78;0.80;;;21.00;57.50;;;;;;4986979;28;20050;-71
2021/12/31 09:27:09;;;;;;;1.20;0.88;;;21.00;57.50;;;;;;5002923;28;20045;-70
2021/12/31 09:29:34;;;;;;;6.13;1.10;;;21.00;57.60;;;;;;4999370;28;20053;-72
2021/12/31 09:32:00;;;;;;;1.77;0.80;;;21.00;57.60;;;;;;5004847;28;20045;-69
2021/12/31 09:34:27;;;;;;;1.42;1.00;;;21.00;57.60;;;;;;4998302;28;20052;-72
2021/12/31 09:36:53;;;;;;;2.22;1.10;;;21.10;57.60;;;;;;4998504;28;20076;-70
2021/12/31 09:39:18;;;;;;;4.85;0.90;;;21.00;57.60;;;;;;5002384;28;20077;-68
2021/12/31 09:41:47;;;;;;;1.70;0.95;;;21.00;57.60;;;;;;5001556;28;20053;-72
2021/12/31 09:44:15;;;;;;;4.13;1.05;;;21.00;57.60;;;;;;5001083;28;20046;-72
2021/12/31 09:46:41;;;;;;;1.42;0.80;;;21.00;57.60;;;;;;5000483;28;20382;-72
2021/12/31 09:49:07;;;;;;;3.60;1.00;;;21.00;57.60;;;;;;5004575;28;20065;-70
2021/12/31 09:51:33;;;;;;;2.95;1.10;;;21.00;57.50;;;;;;5002855;28;20068;-72
2021/12/31 09:54:00;;;;;;;2.10;1.10;;;21.00;57.50;;;;;;5003044;28;20064;-72
2021/12/31 09:56:27;;;;;;;1.98;1.00;;;21.00;57.50;;;;;;5019235;28;20042;-72
2021/12/31 09:58:52;;;;;;;3.45;1.10;;;21.00;57.50;;;;;;5001110;28;20423;-71
2021/12/31 10:01:19;;;;;;;7.88;1.25;;;21.00;57.70;;;;;;4999695;28;20072;-70
2021/12/31 10:03:56;;;;;;;3.90;0.90;;;20.90;57.60;;;;;;4982909;28;20038;-69
2021/12/31 10:06:21;;;;;;;2.58;1.08;;;20.90;57.60;;;;;;5000201;28;20048;-68
2021/12/31 10:08:48;;;;;;;5.28;1.05;;;20.90;57.70;;;;;;5002477;28;20038;-71
2021/12/31 10:11:16;;;;;;;2.47;1.00;;;20.90;57.80;;;;;;5000431;28;20044;-70
2021/12/31 10:14:05;;;;;;;3.47;1.30;;;20.90;57.80;;;;;;5001726;28;20037;-70
2021/12/31 10:16:40;;;;;;;5.47;1.10;;;20.90;57.80;;;;;;4997552;28;20049;-66
2021/12/31 10:19:13;;;;;;;5.90;1.23;;;20.90;57.80;;;;;;4999082;28;20128;-64
2021/12/31 10:21:46;;;;;;;7.55;1.38;;;20.80;57.80;;;;;;4998019;28;20409;-72
2021/12/31 10:24:33;;;;;;;5.55;1.10;;;20.90;57.90;;;;;;5001149;28;20065;-72
2021/12/31 10:27:20;;;;;;;5.93;1.23;;;20.90;57.90;;;;;;4996959;28;20453;-68
2021/12/31 10:29:53;;;;;;;4.43;1.20;;;20.90;57.90;;;;;;5000814;28;20042;-71
2021/12/31 10:32:23;;;;;;;4.18;1.30;;;20.90;58.10;;;;;;5003198;28;20088;-71
2021/12/31 10:34:49;;;;;;;2.90;1.20;;;20.90;58.00;;;;;;5001355;28;20563;-77
2021/12/31 10:37:25;;;;;;;9.02;1.25;;;20.90;58.00;;;;;;5000490;28;20080;-70
2021/12/31 10:39:59;;;;;;;2.45;1.00;;;20.90;58.10;;;;;;4998686;28;20046;-73
2021/12/31 10:42:30;;;;;;;7.30;0.90;;;20.90;58.10;;;;;;4990834;28;20045;-73
2021/12/31 10:44:57;;;;;;;5.75;1.35;;;20.90;58.10;;;;;;5000906;28;20136;-72
2021/12/31 10:47:31;;;;;;;7.78;1.25;;;20.90;58.20;;;;;;5001393;28;20041;-75
2021/12/31 10:50:00;;;;;;;4.95;1.25;;;20.90;58.10;;;;;;5000849;28;20117;-74
2021/12/31 10:52:29;;;;;;;;;;;20.80;58.10;;;;;;5001509;28;20046;-78
2021/12/31 10:55:17;;;;;;;3.05;1.20;;;20.90;58.20;;;;;;5000348;28;20395;-67
2021/12/31 10:57:45;;;;;;;3.97;1.38;;;20.90;58.20;;;;;;5001796;28;20046;-70
2021/12/31 11:00:11;;;;;;;2.27;1.00;;;20.90;58.20;;;;;;4999804;28;20092;-78
2021/12/31 11:02:38;;;;;;;2.17;1.02;;;20.90;58.30;;;;;;5001113;28;20168;-78
2021/12/31 11:05:05;;;;;;;6.90;1.10;;;20.90;58.40;;;;;;5001235;28;20042;-72
2021/12/31 11:07:31;;;;;;;3.30;0.93;;;20.90;58.40;;;;;;5000110;28;20038;-74
2021/12/31 11:09:58;;;;;;;5.40;1.20;;;20.90;58.50;;;;;;4998292;28;20038;-75
2021/12/31 11:12:28;;;;;;;2.70;1.02;;;20.90;58.50;;;;;;5003848;28;20474;-76
2021/12/31 11:14:54;;;;;;;4.38;1.40;;;20.90;58.40;;;;;;5001152;28;20716;-77
2021/12/31 11:17:21;;;;;;;1.60;1.10;;;20.90;58.50;;;;;;5000327;28;20073;-76
2021/12/31 11:19:49;;;;;;;2.83;0.93;;;20.90;58.50;;;;;;5001858;28;20037;-74
2021/12/31 11:22:16;;;;;;;;;;;20.90;58.40;;;;;;5003172;28;20042;-72
2021/12/31 11:24:43;;;;;;;4.05;1.17;;;20.90;58.40;;;;;;5007590;28;19987;-79
2021/12/31 11:27:32;;;;;;;3.50;0.98;;;20.90;58.40;;;;;;4996919;28;20058;-74
2021/12/31 11:29:59;;;;;;;7.07;1.70;;;20.90;58.40;;;;;;5001173;28;20470;-72
2021/12/31 11:32:46;;;;;;;3.92;1.30;;;20.90;58.50;;;;;;5006570;28;20030;-71
2021/12/31 11:35:31;;;;;;;7.57;1.23;;;20.90;58.40;;;;;;5003729;28;20734;-76
2021/12/31 11:37:57;;;;;;;2.28;1.00;;;20.90;58.40;;;;;;5002403;28;20049;-78
2021/12/31 11:40:29;;;;;;;3.58;1.05;;;20.90;58.40;;;;;;5006660;28;20112;-74
2021/12/31 11:43:16;;;;;;;3.38;1.08;;;20.90;58.40;;;;;;5002811;28;20069;-73
2021/12/31 11:45:42;;;;;;;3.25;0.93;;;21.00;58.50;;;;;;5007293;28;20045;-78
2021/12/31 11:48:45;;;;;;;3.05;1.10;;;20.90;58.40;;;;;;4997885;28;20034;-75
2021/12/31 11:51:12;;;;;;;2.90;1.02;;;20.90;58.30;;;;;;5005636;28;20556;-75
2021/12/31 11:53:56;;;;;;;2.97;1.40;;;20.90;58.30;;;;;;5006094;28;20052;-76
2021/12/31 11:56:54;;;;;;;4.93;1.00;;;20.90;58.30;;;;;;4998002;28;20048;-69
2021/12/31 11:59:20;;;;;;;1.63;1.13;;;20.90;58.20;;;;;;4997499;28;20042;-75
2021/12/31 12:01:48;;;;;;;2.60;1.10;;;20.90;58.30;;;;;;4999222;28;21927;-72
2021/12/31 12:04:36;;;;;;;5.13;1.33;;;20.90;58.40;;;;;;4999029;28;20108;-74
2021/12/31 12:07:30;;;;;;;2.90;1.30;;;20.90;58.40;;;;;;4997333;28;20294;-71
2021/12/31 12:10:09;;;;;;;4.93;1.00;;;20.90;58.50;;;;;;4996659;28;20107;-69
2021/12/31 12:12:36;;;;;;;1.85;1.00;;;20.90;58.60;;;;;;4999842;28;20561;-74
2021/12/31 12:15:25;;;;;;;2.25;1.00;;;20.90;58.60;;;;;;5002783;28;20103;-72
2021/12/31 12:17:50;;;;;;;;;;;20.90;58.60;;;;;;4999099;28;20049;-73
2021/12/31 12:20:22;;;;;;;1.92;1.10;;;20.90;58.60;;;;;;5006466;28;19955;-76
2021/12/31 12:22:53;;;;;;;7.18;1.48;;;20.90;58.50;;;;;;5004108;28;20061;-76
2021/12/31 12:25:21;;;;;;;7.53;1.75;;;20.90;58.60;;;;;;5002899;28;20109;-73
2021/12/31 12:27:52;;;;;;;2.60;1.10;;;20.90;58.60;;;;;;5003709;28;20498;-73
2021/12/31 12:30:18;;;;;;;63.50;5.85;;;20.90;58.60;;;;;;5019267;28;20054;-71
2021/12/31 12:35:23;;;;;;;47.53;6.00;;;20.90;58.40;;;;;;5004170;28;20046;-74
2021/12/31 12:38:07;;;;;;;53.38;6.90;;;20.90;58.30;;;;;;5004127;28;20041;-73
2021/12/31 12:40:44;;;;;;;35.67;4.78;;;21.00;58.30;;;;;;5020139;28;20081;-68
2021/12/31 12:43:14;;;;;;;57.73;6.30;;;21.00;58.20;;;;;;5003486;28;20073;-80
2021/12/31 12:45:41;;;;;;;46.22;5.57;;;21.00;58.10;;;;;;5004980;28;20095;-80
2021/12/31 12:48:08;;;;;;;56.42;5.85;;;21.00;58.10;;;;;;5018923;28;20560;-75
2021/12/31 12:50:34;;;;;;;45.15;6.18;;;21.00;58.10;;;;;;5004513;28;20042;-73
2021/12/31 12:53:00;;;;;;;41.30;4.95;;;21.00;58.10;;;;;;5002935;28;20042;-78
2021/12/31 12:55:28;;;;;;;37.15;5.50;;;21.00;58.10;;;;;;5004492;28;20103;-66
2021/12/31 12:57:56;;;;;;;50.90;7.20;;;21.00;58.10;;;;;;5000523;28;20042;-70
2021/12/31 13:00:39;;;;;;;44.53;6.20;;;21.10;58.00;;;;;;5005034;28;20808;-75